Time;durP1;ratioP1;P1;durP2;ratioP2;P2;SDS_P1;SDS_P2;PMS_P1;PMS_P2;Temp;Humidity;BMP_temperature;BMP_pressure;BME280_temperature;BME280_humidity;BME280_pressure;Samples;Min_cycle;Max_cycle;Signal;HPM_P1;HPM_P2
2023/01/15 00:01:42;;;;;;;21.50;3.20;;;;;;;9.04;100.00;98019.38;5052110;28;20029;-67
2023/01/15 00:04:08;;;;;;;28.10;3.90;;;;;;;9.06;100.00;98019.09;5050449;28;20037;-66
2023/01/15 00:06:39;;;;;;;27.60;3.17;;;;;;;8.96;100.00;98006.44;5034101;28;20486;-66
2023/01/15 00:09:05;;;;;;;21.65;3.00;;;;;;;8.99;100.00;98029.25;5052442;28;20067;-66
2023/01/15 00:11:31;;;;;;;28.33;3.00;;;;;;;9.07;100.00;98024.22;5050717;28;20120;-66
2023/01/15 00:13:57;;;;;;;22.98;2.97;;;;;;;8.99;100.00;97999.75;5050796;28;20024;-67
2023/01/15 00:16:24;;;;;;;25.83;2.92;;;;;;;9.02;100.00;97993.88;5050694;28;20049;-67
2023/01/15 00:18:52;;;;;;;21.73;3.17;;;;;;;9.06;100.00;97987.72;5052267;28;20103;-67
2023/01/15 00:21:18;;;;;;;24.58;2.75;;;;;;;9.02;100.00;97997.38;5052198;28;20041;-67
2023/01/15 00:29:15;;;;;;;24.52;3.15;;;;;;;9.20;100.00;98017.59;5071868;28;20044;-67
2023/01/15 00:31:41;;;;;;;27.90;3.85;;;;;;;9.06;100.00;98027.16;5068191;28;20407;-67
2023/01/15 00:34:06;;;;;;;37.90;4.70;;;;;;;9.02;100.00;98012.66;5053200;28;20033;-67
2023/01/15 00:36:33;;;;;;;31.27;3.25;;;;;;;9.03;100.00;98003.53;5054633;28;20044;-67
2023/01/15 00:39:00;;;;;;;34.40;3.55;;;;;;;8.98;100.00;97990.09;5054430;28;20032;-66
2023/01/15 00:41:25;;;;;;;28.92;3.50;;;;;;;9.01;100.00;98005.69;5051624;28;20052;-67
2023/01/15 00:43:51;;;;;;;30.65;3.35;;;;;;;9.03;100.00;98003.53;5051640;28;20025;-67
2023/01/15 00:46:17;;;;;;;33.67;4.07;;;;;;;8.98;100.00;97995.47;5051558;28;20005;-67
2023/01/15 00:48:43;;;;;;;32.92;3.47;;;;;;;8.90;100.00;98010.94;5050528;28;20025;-67
2023/01/15 00:51:09;;;;;;;35.03;4.18;;;;;;;8.96;100.00;98019.03;5051867;28;20036;-67
2023/01/15 00:53:34;;;;;;;31.02;3.63;;;;;;;8.96;100.00;98013.69;5050647;28;20495;-67
2023/01/15 00:56:00;;;;;;;25.15;2.88;;;;;;;8.94;100.00;98011.25;5051442;28;20128;-67
2023/01/15 00:58:25;;;;;;;28.58;3.38;;;;;;;8.91;100.00;98009.09;5049636;28;20106;-67
2023/01/15 01:00:56;;;;;;;29.58;4.07;;;;;;;8.76;100.00;98025.84;5051344;28;20506;-67
2023/01/15 01:03:21;;;;;;;22.63;3.05;;;;;;;8.68;100.00;98027.13;5051506;28;20029;-67
2023/01/15 01:05:47;;;;;;;20.15;2.97;;;;;;;8.52;100.00;98027.25;5033473;28;20502;-66
2023/01/15 01:08:12;;;;;;;19.75;2.65;;;;;;;8.42;100.00;98038.69;5050473;28;20052;-67
2023/01/15 01:10:38;;;;;;;23.80;3.10;;;;;;;8.45;100.00;98038.97;5050302;28;20033;-68
2023/01/15 01:13:03;;;;;;;24.02;3.15;;;;;;;8.45;100.00;98033.63;5050624;28;20070;-67
2023/01/15 01:15:29;;;;;;;21.08;2.28;;;;;;;8.34;99.58;98031.84;5033099;28;20082;-66
2023/01/15 01:17:54;;;;;;;18.48;2.63;;;;;;;8.15;100.00;98030.59;5049951;28;20037;-67
2023/01/15 01:20:20;;;;;;;22.02;2.83;;;;;;;8.23;99.92;98043.53;5051772;28;20415;-67
2023/01/15 01:22:47;;;;;;;21.38;2.90;;;;;;;8.22;99.38;98036.56;5033467;28;20033;-67
2023/01/15 01:25:13;;;;;;;21.08;2.42;;;;;;;8.13;99.13;98046.09;5050610;28;20021;-67
2023/01/15 01:27:38;;;;;;;19.17;2.30;;;;;;;8.06;99.30;98046.28;5034520;28;20388;-67
2023/01/15 01:30:04;;;;;;;21.08;2.40;;;;;;;8.04;98.67;98042.25;5034299;28;20040;-67
2023/01/15 01:32:29;;;;;;;19.00;2.38;;;;;;;7.98;98.93;98039.53;5051562;28;20044;-67
2023/01/15 01:34:55;;;;;;;25.70;2.53;;;;;;;7.82;99.48;98036.91;5050271;28;20037;-67
2023/01/15 01:37:21;;;;;;;19.10;2.53;;;;;;;7.86;98.64;98041.50;5049662;28;20032;-67
2023/01/15 01:39:47;;;;;;;17.95;2.53;;;;;;;7.86;98.10;98038.84;5051514;28;20037;-67
2023/01/15 01:42:16;;;;;;;17.17;2.58;;;;;;;7.59;99.26;98030.72;5055192;28;20056;-67
2023/01/15 01:44:42;;;;;;;19.10;2.80;;;;;;;7.76;99.16;98044.06;5055127;28;20031;-67
2023/01/15 01:47:14;;;;;;;24.58;3.00;;;;;;;7.80;98.66;98047.84;5055444;28;20438;-66
2023/01/15 01:49:42;;;;;;;19.45;2.63;;;;;;;7.68;98.61;98031.94;5055058;28;20024;-67
2023/01/15 01:52:18;;;;;;;30.75;3.10;;;;;;;7.66;98.49;98042.06;5055429;28;20035;-67
2023/01/15 01:54:46;;;;;;;24.08;3.10;;;;;;;7.68;97.74;98023.06;5063504;28;20025;-67
2023/01/15 01:57:12;;;;;;;23.83;3.20;;;;;;;7.61;97.52;98007.19;5075475;28;20046;-67
2023/01/15 01:59:38;;;;;;;20.33;2.85;;;;;;;7.75;97.20;98039.78;5069110;28;20480;-67
2023/01/15 02:02:05;;;;;;;23.65;3.25;;;;;;;7.68;97.93;98036.44;5054818;28;20031;-67
2023/01/15 02:04:30;;;;;;;20.83;3.00;;;;;;;7.53;98.39;98040.53;5055377;28;20492;-67
2023/01/15 02:06:58;;;;;;;21.08;2.83;;;;;;;7.58;97.97;98044.34;5055267;28;20037;-66
2023/01/15 02:09:24;;;;;;;20.80;2.42;;;;;;;7.60;97.98;98042.25;5053325;28;20021;-67
2023/01/15 02:11:55;;;;;;;25.35;2.83;;;;;;;7.63;97.44;98041.75;5054786;28;20059;-67
2023/01/15 02:14:36;;;;;;;25.63;2.75;;;;;;;7.60;97.24;98037.69;5054261;28;20151;-67
2023/01/15 02:17:28;;;;;;;10.88;1.75;;;;;;;7.53;97.24;98043.22;5052904;28;20029;-67
2023/01/15 02:19:59;;;;;;;15.82;2.20;;;;;;;7.50;97.50;98046.38;5053809;28;20032;-67
2023/01/15 02:22:39;;;;;;;16.80;2.20;;;;;;;7.46;97.12;98036.44;5053981;28;20029;-67
2023/01/15 02:25:18;;;;;;;14.85;1.85;;;;;;;7.53;96.62;98045.09;5052346;28;20123;-67
2023/01/15 02:27:51;;;;;;;20.42;1.95;;;;;;;7.49;96.60;98019.91;5053115;28;20029;-66
2023/01/15 02:30:23;;;;;;;29.75;2.83;;;;;;;7.52;96.84;98028.22;5051961;28;20854;-67
2023/01/15 02:32:56;;;;;;;23.15;2.92;;;;;;;7.45;97.40;98038.31;5053816;28;20145;-67
2023/01/15 02:35:33;;;;;;;28.98;3.40;;;;;;;7.49;97.09;98035.94;5053943;28;20028;-67
2023/01/15 02:38:02;;;;;;;26.58;3.70;;;;;;;7.44;97.53;98039.34;5053428;28;20332;-67
2023/01/15 02:40:30;;;;;;;23.92;3.20;;;;;;;7.46;97.32;98042.59;5054143;28;20091;-67
2023/01/15 02:42:58;;;;;;;28.25;3.10;;;;;;;7.39;97.02;98022.44;5053747;28;20025;-67
2023/01/15 02:45:33;;;;;;;24.15;3.00;;;;;;;7.40;97.76;98032.88;5054142;28;20024;-68
2023/01/15 02:48:08;;;;;;;33.50;3.50;;;;;;;7.59;96.94;98043.31;5054694;28;20017;-67
2023/01/15 02:50:42;;;;;;;28.60;2.80;;;;;;;7.58;97.30;98036.31;5054218;28;20127;-67
2023/01/15 02:53:12;;;;;;;18.27;3.17;;;;;;;7.42;96.76;98020.06;5054182;28;20364;-67
2023/01/15 02:55:43;;;;;;;25.63;3.30;;;;;;;7.41;97.49;98034.47;5052119;28;20542;-67
2023/01/15 02:58:13;;;;;;;20.20;2.85;;;;;;;7.37;97.58;98043.25;5053904;28;20067;-67
2023/01/15 03:00:42;;;;;;;21.42;3.00;;;;;;;7.19;97.18;98004.25;5053732;28;20095;-67
2023/01/15 03:03:43;;;;;;;19.55;2.97;;;;;;;7.42;97.09;98030.78;5054136;28;20017;-66
2023/01/15 03:06:25;;;;;;;22.95;3.22;;;;;;;7.43;96.96;98043.09;5046234;28;20043;-66
2023/01/15 03:08:50;;;;;;;28.38;5.05;;;;;;;7.24;98.16;98031.84;5052843;28;20036;-68
2023/01/15 03:11:17;;;;;;;18.40;2.13;;;;;;;7.31;97.83;98029.00;5052534;28;20466;-67
2023/01/15 03:14:08;;;;;;;20.88;2.88;;;;;;;7.36;97.28;98033.63;5053740;28;20143;-67
2023/01/15 03:16:37;;;;;;;16.63;2.17;;;;;;;7.34;97.59;98031.19;5051052;28;20529;-67
2023/01/15 03:19:24;;;;;;;25.48;3.05;;;;;;;7.36;97.24;98018.38;5053467;28;20036;-66
2023/01/15 03:22:02;;;;;;;18.85;2.63;;;;;;;7.36;96.92;98020.25;5055968;28;20503;-67
2023/01/15 03:24:41;;;;;;;20.05;3.05;;;;;;;7.32;96.79;98025.28;5062636;28;20491;-67
2023/01/15 03:27:06;;;;;;;20.20;2.55;;;;;;;7.25;97.52;98019.28;5052925;28;20033;-67
2023/01/15 03:29:36;;;;;;;18.85;2.33;;;;;;;7.41;97.05;98031.00;5053043;28;20032;-67
2023/01/15 03:32:03;;;;;;;24.77;2.83;;;;;;;7.33;96.20;98002.81;5052609;28;20049;-67
2023/01/15 03:34:35;;;;;;;17.90;2.35;;;;;;;7.44;96.74;98020.63;5050959;28;20032;-67
2023/01/15 03:37:01;;;;;;;17.05;2.30;;;;;;;7.43;96.78;98015.53;5052282;28;20102;-67
2023/01/15 03:39:27;;;;;;;24.33;2.33;;;;;;;7.42;96.83;98019.28;5053355;28;20083;-67
2023/01/15 03:42:18;;;;;;;15.52;2.25;;;;;;;7.22;96.77;98001.06;5035923;28;20056;-67
2023/01/15 03:44:55;;;;;;;22.27;2.55;;;;;;;7.33;97.28;98029.56;5053083;28;20099;-67
2023/01/15 03:47:27;;;;;;;16.20;3.20;;;;;;;7.42;96.50;98024.63;5053515;28;20078;-67
2023/01/15 03:49:52;;;;;;;19.38;2.63;;;;;;;7.44;96.34;98027.84;5052718;28;20120;-66
2023/01/15 03:52:35;;;;;;;18.17;2.20;;;;;;;7.47;96.10;98016.66;5052955;28;20083;-67
2023/01/15 03:55:23;;;;;;;21.63;2.42;;;;;;;7.59;95.72;98021.91;5051226;28;20472;-67
2023/01/15 03:57:59;;;;;;;18.83;2.25;;;;;;;7.56;95.36;98020.53;5051033;28;20226;-67
2023/01/15 04:00:26;;;;;;;20.40;2.67;;;;;;;7.59;95.09;98019.22;5053106;28;20506;-67
2023/01/15 04:02:54;;;;;;;19.92;3.00;;;;;;;7.62;95.47;98018.72;5052420;28;20033;-67
2023/01/15 04:05:21;;;;;;;21.90;3.08;;;;;;;7.65;95.05;98018.22;5052446;28;20036;-66
2023/01/15 04:07:49;;;;;;;14.77;2.72;;;;;;;7.62;95.38;98011.50;5051710;28;20032;-66
2023/01/15 04:10:15;;;;;;;20.17;2.65;;;;;;;7.69;95.75;98014.00;5051531;28;20395;-67
2023/01/15 04:12:40;;;;;;;21.60;2.95;;;;;;;7.61;96.37;98012.53;5052706;28;20637;-66
2023/01/15 04:15:06;;;;;;;25.15;2.60;;;;;;;7.65;96.65;98013.69;5051376;28;20460;-66
2023/01/15 04:17:31;;;;;;;24.17;4.18;;;;;;;7.81;95.86;98014.66;5051004;28;20025;-66
2023/01/15 04:19:57;;;;;;;22.08;2.75;;;;;;;7.84;95.82;98013.34;5052246;28;20435;-66
2023/01/15 04:22:22;;;;;;;20.05;3.13;;;;;;;7.69;96.58;98006.78;5052448;28;20484;-67
2023/01/15 04:24:48;;;;;;;23.10;2.58;;;;;;;7.73;97.00;97999.06;5052060;28;20036;-67
2023/01/15 04:27:13;;;;;;;26.15;3.42;;;;;;;7.83;96.02;98004.53;5051839;28;20128;-67
2023/01/15 04:29:38;;;;;;;27.55;3.15;;;;;;;7.76;96.15;97985.97;5052540;28;20040;-67
2023/01/15 04:32:04;;;;;;;20.50;3.08;;;;;;;7.79;96.15;97992.72;5051470;28;20025;-67
2023/01/15 04:34:29;;;;;;;29.42;3.50;;;;;;;7.73;96.28;98004.41;5049921;28;20064;-67
2023/01/15 04:36:56;;;;;;;25.73;3.03;;;;;;;7.81;96.11;98011.19;5049476;28;20039;-67
2023/01/15 04:39:21;;;;;;;20.33;2.83;;;;;;;7.82;95.36;97997.56;5051004;28;20032;-67
2023/01/15 04:44:35;;;;;;;25.98;3.03;;;;;;;7.81;95.40;98000.47;5051179;28;20040;-67
2023/01/15 04:47:01;;;;;;;26.88;3.03;;;;;;;7.65;96.47;97997.63;5052233;28;20424;-67
2023/01/15 04:49:27;;;;;;;27.02;3.72;;;;;;;7.66;96.07;97982.38;5052177;28;20106;-67
2023/01/15 04:51:52;;;;;;;28.30;3.67;;;;;;;7.73;95.69;97994.50;5052362;28;20059;-67
2023/01/15 04:54:19;;;;;;;24.05;3.05;;;;;;;7.84;95.79;97989.25;5052442;28;20450;-67
2023/01/15 04:56:47;;;;;;;36.00;4.32;;;;;;;7.79;95.93;97992.72;5050704;28;20032;-67
2023/01/15 04:59:14;;;;;;;26.10;3.78;;;;;;;7.77;95.65;97984.91;5052085;28;20025;-67
2023/01/15 05:01:39;;;;;;;31.38;3.63;;;;;;;7.87;96.28;97978.88;5052210;28;20037;-67
2023/01/15 05:04:05;;;;;;;26.30;3.15;;;;;;;7.83;96.78;97984.97;5052405;28;20041;-67
2023/01/15 05:06:31;;;;;;;23.58;3.60;;;;;;;7.86;96.44;97982.59;5050617;28;20071;-66
2023/01/15 05:08:57;;;;;;;22.50;3.53;;;;;;;7.89;95.72;97982.09;5052637;28;20317;-67
2023/01/15 05:11:22;;;;;;;19.75;3.58;;;;;;;7.69;95.26;97949.75;5050442;28;20056;-67
2023/01/15 05:13:48;;;;;;;24.75;3.47;;;;;;;7.95;94.57;97973.06;5051238;28;20032;-67
2023/01/15 05:16:15;;;;;;;25.88;3.60;;;;;;;7.97;94.41;97968.25;5055349;28;20053;-67
2023/01/15 05:18:42;;;;;;;22.50;3.40;;;;;;;7.83;95.14;97950.97;5055689;28;20102;-67
2023/01/15 05:21:22;;;;;;;23.35;3.10;;;;;;;7.80;95.50;97961.38;5054661;28;20047;-66
2023/01/15 05:23:50;;;;;;;23.58;3.03;;;;;;;7.97;94.33;97962.09;5056034;28;20081;-67
2023/01/15 05:26:16;;;;;;;24.73;3.80;;;;;;;7.84;94.78;97957.94;5055995;28;20029;-67
2023/01/15 05:28:42;;;;;;;26.77;3.50;;;;;;;7.88;94.73;97961.75;5056053;28;20420;-67
2023/01/15 05:31:13;;;;;;;25.80;3.55;;;;;;;7.88;94.73;97961.75;5054165;28;20057;-67
2023/01/15 05:33:39;;;;;;;28.92;3.78;;;;;;;7.84;95.12;97960.63;5056155;28;20021;-66
2023/01/15 05:36:13;;;;;;;22.48;3.63;;;;;;;7.68;94.13;97900.78;5056748;28;20025;-66
2023/01/15 05:38:39;;;;;;;28.40;4.20;;;;;;;8.06;93.99;97962.47;5056417;28;20021;-66
2023/01/15 05:43:58;;;;;;;33.22;4.57;;;;;;;8.13;94.26;97963.06;5055700;28;20032;-66
2023/01/15 05:46:24;;;;;;;22.73;3.22;;;;;;;8.08;94.82;97957.66;5055218;28;20332;-66
2023/01/15 05:48:49;;;;;;;28.50;3.97;;;;;;;8.00;94.46;97949.03;5055367;28;20037;-66
2023/01/15 05:51:15;;;;;;;31.85;3.72;;;;;;;8.16;94.25;97946.50;5054817;28;20021;-66
2023/01/15 05:53:40;;;;;;;25.63;3.85;;;;;;;8.17;93.92;97942.75;5053923;28;20036;-66
2023/01/15 05:56:06;;;;;;;27.88;3.58;;;;;;;8.12;94.48;97950.75;5054953;28;20035;-66
2023/01/15 05:58:32;;;;;;;33.42;4.28;;;;;;;8.03;94.76;97942.34;5055253;28;20029;-67
2023/01/15 06:00:58;;;;;;;33.10;4.03;;;;;;;8.17;94.15;97946.22;5054459;28;20083;-66
2023/01/15 06:03:25;;;;;;;28.55;4.35;;;;;;;8.18;93.73;97947.06;5054595;28;20476;-67
2023/01/15 06:05:55;;;;;;;26.33;3.35;;;;;;;8.03;94.73;97942.34;5053496;28;20403;-65
2023/01/15 06:08:22;;;;;;;28.30;4.22;;;;;;;8.10;94.75;97934.91;5054445;28;20033;-66
2023/01/15 06:10:50;;;;;;;24.58;4.35;;;;;;;8.21;93.87;97915.22;5052664;28;20133;-67
2023/01/15 06:13:16;;;;;;;28.30;3.70;;;;;;;8.29;93.53;97934.56;5053765;28;20037;-66
2023/01/15 06:15:42;;;;;;;26.15;3.85;;;;;;;8.30;93.28;97938.84;5053293;28;20049;-67
2023/01/15 06:18:08;;;;;;;27.60;3.67;;;;;;;8.13;93.62;97923.69;5054866;28;20052;-67
2023/01/15 06:20:37;;;;;;;28.48;3.95;;;;;;;8.16;93.62;97938.47;5054626;28;20506;-66
2023/01/15 06:23:03;;;;;;;23.75;3.45;;;;;;;8.03;92.94;97917.44;5054663;28;20372;-67
2023/01/15 06:25:28;;;;;;;24.98;3.80;;;;;;;8.06;93.02;97947.22;5051995;28;20124;-67
2023/01/15 06:27:53;;;;;;;26.63;3.92;;;;;;;7.95;93.34;97922.22;5054494;28;20546;-67
2023/01/15 06:30:19;;;;;;;24.83;3.58;;;;;;;7.93;93.12;97932.34;5036752;28;20453;-67
2023/01/15 06:32:44;;;;;;;25.23;3.13;;;;;;;7.87;93.11;97940.59;5053106;28;20028;-67
2023/01/15 06:35:11;;;;;;;36.92;4.55;;;;;;;7.97;92.52;97938.00;5054350;28;20491;-67
2023/01/15 06:37:36;;;;;;;27.13;3.50;;;;;;;8.03;91.86;97926.28;5054105;28;20068;-67
2023/01/15 06:40:02;;;;;;;26.00;3.80;;;;;;;8.07;91.45;97924.72;5054353;28;20052;-67
2023/01/15 06:47:57;;;;;;;22.98;3.30;;;;;;;7.83;91.40;97916.19;5054956;28;20056;-66
2023/01/15 06:50:24;;;;;;;21.95;3.72;;;;;;;7.83;91.91;97912.69;5053022;28;20056;-67
2023/01/15 06:52:50;;;;;;;24.95;3.58;;;;;;;7.83;91.71;97907.34;5054473;28;20108;-67
2023/01/15 06:55:17;;;;;;;21.10;3.22;;;;;;;7.82;91.51;97909.22;5052797;28;20100;-67
2023/01/15 06:57:43;;;;;;;22.55;3.85;;;;;;;7.81;91.77;97909.47;5053785;28;20029;-67
2023/01/15 07:00:10;;;;;;;24.85;3.40;;;;;;;7.85;91.52;97902.56;5054029;28;20035;-66
2023/01/15 07:02:36;;;;;;;29.75;5.05;;;;;;;7.68;91.72;97895.44;5035374;28;20516;-66
2023/01/15 07:05:03;;;;;;;31.75;4.88;;;;;;;7.64;91.77;97875.56;5052866;28;20059;-66
2023/01/15 07:07:28;;;;;;;30.30;4.10;;;;;;;7.82;92.09;97900.38;5054153;28;20155;-67
2023/01/15 07:09:54;;;;;;;30.52;4.40;;;;;;;7.87;92.19;97895.06;5053570;28;20129;-68
2023/01/15 07:12:20;;;;;;;22.13;3.58;;;;;;;7.94;91.89;97893.78;5053625;28;20054;-67
2023/01/15 07:14:46;;;;;;;30.65;4.47;;;;;;;7.77;92.64;97920.66;5035607;28;20515;-67
2023/01/15 07:17:11;;;;;;;27.60;4.25;;;;;;;7.82;92.79;97911.91;5053842;28;20033;-67
2023/01/15 07:19:37;;;;;;;23.65;3.67;;;;;;;7.85;92.04;97913.28;5052933;28;20021;-67
2023/01/15 07:22:03;;;;;;;25.20;3.97;;;;;;;7.77;92.96;97935.94;5053163;28;20028;-67
2023/01/15 07:24:29;;;;;;;37.45;4.85;;;;;;;7.91;91.86;97921.09;5053450;28;20028;-66
2023/01/15 07:26:54;;;;;;;33.78;4.60;;;;;;;7.99;92.19;97923.31;5053432;28;20025;-66
2023/01/15 07:29:20;;;;;;;27.35;4.85;;;;;;;8.03;91.69;97925.50;5052031;28;20491;-66
2023/01/15 07:31:45;;;;;;;23.15;3.72;;;;;;;8.00;91.01;97903.50;5051689;28;20498;-67
2023/01/15 07:34:11;;;;;;;33.78;4.63;;;;;;;8.09;91.62;97933.31;5050826;28;20028;-65
2023/01/15 07:36:37;;;;;;;34.40;4.22;;;;;;;7.92;92.64;97916.56;5052520;28;20407;-66
2023/01/15 07:39:04;;;;;;;29.88;4.85;;;;;;;8.00;92.49;97914.22;5051465;28;20033;-65
2023/01/15 07:49:46;;;;;;;33.20;4.45;;;;;;;8.10;91.67;97923.41;5051987;28;20430;-67
2023/01/15 07:52:19;;;;;;;27.05;4.15;;;;;;;8.24;90.62;97921.91;5050150;28;20167;-67
2023/01/15 07:54:46;;;;;;;26.45;3.72;;;;;;;8.18;90.15;97915.72;5050005;28;20369;-66
2023/01/15 07:57:13;;;;;;;28.83;4.53;;;;;;;8.11;90.00;97908.94;5033984;28;20037;-69
2023/01/15 07:59:39;;;;;;;27.50;4.03;;;;;;;8.11;90.14;97912.47;5051310;28;20067;-67
2023/01/15 08:02:05;;;;;;;26.50;4.35;;;;;;;8.20;89.64;97916.25;5050996;28;20423;-67
2023/01/15 08:04:30;;;;;;;26.50;4.28;;;;;;;8.26;89.43;97917.13;5052690;28;20020;-68
2023/01/15 08:06:59;;;;;;;31.63;5.20;;;;;;;8.13;90.11;97917.53;5052241;28;20017;-68
2023/01/15 08:09:24;;;;;;;30.42;4.43;;;;;;;8.10;89.84;97884.03;5052437;28;20033;-68
2023/01/15 08:17:18;;;;;;;36.97;4.72;;;;;;;8.20;89.60;97894.03;5051280;28;20559;-69
2023/01/15 08:19:44;;;;;;;31.83;4.53;;;;;;;8.40;89.45;97901.47;5033798;28;20120;-67
2023/01/15 08:22:09;;;;;;;23.45;4.10;;;;;;;8.45;88.75;97909.56;5051652;28;20033;-67
2023/01/15 08:24:35;;;;;;;26.88;3.97;;;;;;;8.33;88.99;97904.31;5051566;28;20035;-67
2023/01/15 08:27:00;;;;;;;24.98;4.80;;;;;;;8.28;88.96;97872.16;5051897;28;20059;-68
2023/01/15 08:29:26;;;;;;;28.45;4.22;;;;;;;8.34;89.26;97922.00;5050026;28;20028;-68
2023/01/15 08:31:52;;;;;;;28.38;5.15;;;;;;;8.47;88.05;97913.56;5050590;28;20029;-68
2023/01/15 08:34:18;;;;;;;30.95;5.65;;;;;;;8.50;88.15;97916.81;5051817;28;20032;-68
2023/01/15 08:36:43;;;;;;;26.90;4.70;;;;;;;8.43;88.72;97909.78;5051738;28;20402;-69
2023/01/15 08:39:09;;;;;;;33.70;5.00;;;;;;;8.48;88.50;97909.03;5051368;28;20029;-68
2023/01/15 08:41:34;;;;;;;29.40;5.07;;;;;;;8.40;87.97;97912.97;5049837;28;20037;-69
2023/01/15 08:44:00;;;;;;;31.52;4.60;;;;;;;8.40;88.26;97917.53;5050754;28;20451;-68
2023/01/15 08:46:26;;;;;;;27.92;4.13;;;;;;;8.58;87.41;97911.00;5052386;28;20428;-68
2023/01/15 08:48:52;;;;;;;30.85;4.57;;;;;;;8.54;87.39;97912.56;5053539;28;20399;-68
2023/01/15 08:51:18;;;;;;;31.10;4.50;;;;;;;8.47;87.30;97913.56;5056028;28;20033;-68
2023/01/15 08:53:44;;;;;;;31.17;4.47;;;;;;;8.21;87.98;97888.44;5056009;28;20021;-68
2023/01/15 08:56:19;;;;;;;33.20;4.82;;;;;;;8.50;87.92;97922.97;5054981;28;20037;-68
2023/01/15 08:58:46;;;;;;;35.95;5.03;;;;;;;8.33;88.29;97911.56;5055858;28;20067;-68
2023/01/15 09:01:14;;;;;;;29.00;5.35;;;;;;;8.24;88.09;97897.81;5054927;28;20421;-67
2023/01/15 09:03:41;;;;;;;29.58;4.57;;;;;;;8.62;87.22;97920.13;5037669;28;20052;-68
2023/01/15 09:06:07;;;;;;;24.38;4.50;;;;;;;8.47;86.94;97902.03;5056111;28;20021;-68
2023/01/15 09:08:32;;;;;;;29.08;4.32;;;;;;;8.59;86.61;97929.47;5054577;28;20112;-69
2023/01/15 09:10:59;;;;;;;25.98;4.05;;;;;;;8.46;87.16;97917.31;5054518;28;20024;-68
2023/01/15 09:13:25;;;;;;;30.85;4.68;;;;;;;8.51;86.80;97905.84;5056169;28;20061;-69
2023/01/15 09:15:51;;;;;;;26.48;4.00;;;;;;;8.49;86.72;97920.56;5055531;28;20072;-68
2023/01/15 09:18:19;;;;;;;28.35;4.18;;;;;;;8.49;86.72;97916.00;5055665;28;20253;-69
2023/01/15 09:20:45;;;;;;;32.22;4.25;;;;;;;8.42;86.05;97888.63;5058607;28;20028;-68
2023/01/15 09:23:11;;;;;;;29.98;4.53;;;;;;;8.70;85.76;97922.31;5070196;28;20025;-67
2023/01/15 09:25:36;;;;;;;27.13;4.82;;;;;;;8.54;86.11;97915.22;5063978;28;20035;-69
2023/01/15 09:28:02;;;;;;;25.23;4.05;;;;;;;8.41;85.87;97919.97;5046118;28;20532;-67
2023/01/15 09:30:28;;;;;;;32.63;4.63;;;;;;;8.43;85.85;97925.88;5070703;28;20043;-67
2023/01/15 09:32:54;;;;;;;25.88;3.92;;;;;;;8.44;86.08;97922.16;5058359;28;20058;-67
2023/01/15 09:35:21;;;;;;;32.58;5.00;;;;;;;8.43;85.53;97915.16;5068376;28;20144;-67
2023/01/15 09:37:57;;;;;;;31.20;4.72;;;;;;;8.53;85.47;97916.31;5066342;28;20081;-66
2023/01/15 09:40:31;;;;;;;24.95;4.68;;;;;;;8.46;84.81;97879.00;5060015;28;20128;-67
2023/01/15 09:43:08;;;;;;;31.50;4.40;;;;;;;8.52;85.59;97901.28;5072371;28;20476;-67
2023/01/15 09:45:43;;;;;;;29.75;4.57;;;;;;;8.41;86.14;97903.91;5064387;28;20123;-67
2023/01/15 09:48:26;;;;;;;38.15;5.63;;;;;;;8.43;86.85;97912.47;5063702;28;20028;-67
2023/01/15 09:51:05;;;;;;;24.38;4.72;;;;;;;8.44;86.58;97902.56;5055655;28;20024;-67
2023/01/15 09:54:06;;;;;;;30.70;4.40;;;;;;;8.43;87.20;97911.66;5052111;28;20044;-66
2023/01/15 09:56:36;;;;;;;23.45;4.15;;;;;;;8.25;87.69;97899.44;5035633;28;20139;-66
2023/01/15 09:59:14;;;;;;;32.05;4.80;;;;;;;8.28;87.86;97892.75;5052352;28;20268;-66
2023/01/15 10:01:41;;;;;;;37.10;4.78;;;;;;;8.38;86.28;97892.88;5051819;28;20025;-66
2023/01/15 10:04:33;;;;;;;33.05;4.53;;;;;;;8.39;86.89;97905.22;5054164;28;20104;-66
2023/01/15 10:07:21;;;;;;;37.13;5.75;;;;;;;8.19;86.66;97879.84;5054377;28;20038;-66
2023/01/15 10:09:56;;;;;;;36.40;5.22;;;;;;;8.45;86.92;97898.84;5051365;28;20021;-66
2023/01/15 10:12:35;;;;;;;38.50;5.85;;;;;;;8.39;86.09;97899.84;5055098;28;20371;-67
2023/01/15 10:15:15;;;;;;;33.88;6.47;;;;;;;8.57;85.69;97896.75;5054528;28;20073;-67
2023/01/15 10:17:54;;;;;;;29.83;5.35;;;;;;;8.39;84.73;97897.19;5052122;28;20086;-66
2023/01/15 10:20:53;;;;;;;32.03;4.75;;;;;;;8.57;84.15;97895.94;5053260;28;20071;-67
2023/01/15 10:23:41;;;;;;;31.20;5.25;;;;;;;8.69;84.26;97878.63;5053462;28;20475;-66
2023/01/15 10:26:39;;;;;;;30.67;5.07;;;;;;;8.62;82.32;97879.94;5054852;28;20032;-66
2023/01/15 10:29:04;;;;;;;29.02;5.80;;;;;;;8.76;82.47;97880.28;5052867;28;20044;-66
2023/01/15 10:31:46;;;;;;;37.90;5.25;;;;;;;8.83;82.12;97889.69;5054129;28;20036;-66
2023/01/15 10:34:31;;;;;;;34.55;6.13;;;;;;;8.89;81.65;97898.59;5034946;28;20383;-66
2023/01/15 10:37:15;;;;;;;37.13;6.25;;;;;;;8.73;81.02;97903.03;5052341;28;20083;-66
2023/01/15 10:40:19;;;;;;;33.92;5.47;;;;;;;8.84;80.74;97885.13;5052827;28;20045;-67
2023/01/15 10:43:37;;;;;;;28.42;5.07;;;;;;;8.77;79.66;97874.63;5044582;28;20115;-66
2023/01/15 10:46:11;;;;;;;36.33;5.40;;;;;;;8.41;80.66;97853.00;5028881;28;20037;-66
2023/01/15 10:48:54;;;;;;;26.77;5.20;;;;;;;8.70;80.43;97877.53;5053552;28;20021;-66
2023/01/15 10:51:22;;;;;;;32.08;4.55;;;;;;;8.72;80.02;97887.22;5052278;28;20028;-66
2023/01/15 10:53:57;;;;;;;38.65;5.95;;;;;;;8.83;79.26;97880.84;5054196;28;20124;-66
2023/01/15 10:56:40;;;;;;;35.20;5.35;;;;;;;8.74;79.13;97871.66;5052295;28;20086;-66
2023/01/15 10:59:10;;;;;;;29.10;4.57;;;;;;;8.79;78.95;97879.75;5052985;28;20033;-66
2023/01/15 11:01:37;;;;;;;31.85;5.18;;;;;;;8.81;78.63;97875.75;5052076;28;20040;-66
2023/01/15 11:04:03;;;;;;;30.25;5.30;;;;;;;8.90;78.42;97868.81;5053216;28;20136;-66
2023/01/15 11:06:30;;;;;;;27.33;5.32;;;;;;;8.69;78.18;97853.69;5051871;28;20029;-67
2023/01/15 11:08:56;;;;;;;27.13;4.88;;;;;;;8.74;78.51;97869.00;5052700;28;20028;-66
2023/01/15 11:19:39;;;;;;;27.27;4.60;;;;;;;8.94;77.01;97859.22;5053258;28;20029;-66
2023/01/15 11:22:16;;;;;;;33.55;5.20;;;;;;;9.06;76.29;97866.22;5053425;28;20023;-68
2023/01/15 11:24:46;;;;;;;32.33;4.75;;;;;;;8.97;74.92;97857.06;5053480;28;20025;-67
2023/01/15 11:27:19;;;;;;;23.88;3.40;;;;;;;9.03;75.44;97842.59;5053149;28;20021;-66
2023/01/15 11:29:46;;;;;;;29.23;4.30;;;;;;;9.21;74.50;97836.00;5051942;28;20024;-66
2023/01/15 11:32:22;;;;;;;25.23;3.83;;;;;;;9.27;74.40;97835.75;5052471;28;20038;-67
2023/01/15 11:34:59;;;;;;;29.73;4.88;;;;;;;9.11;74.48;97842.13;5052421;28;20446;-66
2023/01/15 11:37:26;;;;;;;26.13;4.03;;;;;;;9.11;73.94;97834.88;5052685;28;20040;-67
2023/01/15 11:39:56;;;;;;;33.03;5.32;;;;;;;9.26;73.76;97819.88;5051833;28;20079;-67
2023/01/15 11:51:09;;;;;;;24.98;4.18;;;;;;;9.15;73.39;97801.09;5048812;28;20060;-67
2023/01/15 11:53:46;;;;;;;23.17;4.10;;;;;;;8.92;72.97;97788.13;5050016;28;20056;-68
2023/01/15 11:56:19;;;;;;;26.52;4.90;;;;;;;9.09;72.82;97779.88;5049406;28;20100;-66
2023/01/15 11:58:47;;;;;;;31.17;5.22;;;;;;;9.09;72.81;97779.88;5051309;28;20025;-67
2023/01/15 12:01:20;;;;;;;37.50;5.57;;;;;;;9.03;73.34;97770.19;5050979;28;20104;-68
2023/01/15 12:03:45;;;;;;;31.77;4.00;;;;;;;8.97;72.98;97755.16;5050487;28;20024;-67
2023/01/15 12:06:13;;;;;;;25.30;3.95;;;;;;;9.13;72.75;97759.50;5050750;28;20031;-66
2023/01/15 12:08:46;;;;;;;23.23;4.45;;;;;;;9.07;72.55;97755.19;5051897;28;20028;-67
2023/01/15 12:11:37;;;;;;;26.48;5.45;;;;;;;9.09;71.52;97753.03;5050317;28;20107;-68
2023/01/15 12:14:20;;;;;;;25.00;3.90;;;;;;;9.07;72.35;97753.31;5050109;28;20096;-68
2023/01/15 12:17:25;;;;;;;31.63;4.15;;;;;;;9.02;72.13;97739.09;5050898;28;20059;-67
2023/01/15 12:20:08;;;;;;;24.50;3.90;;;;;;;9.05;72.29;97730.50;5052009;28;20028;-67
2023/01/15 12:22:52;;;;;;;28.85;4.55;;;;;;;9.09;72.32;97718.19;5050612;28;20056;-67
2023/01/15 12:25:29;;;;;;;33.45;5.00;;;;;;;9.01;71.42;97727.56;5056468;28;20035;-67
2023/01/15 12:28:10;;;;;;;23.98;4.20;;;;;;;9.04;71.73;97718.16;5053627;28;20097;-67
2023/01/15 12:31:04;;;;;;;23.50;3.50;;;;;;;8.85;71.66;97717.84;5051805;28;20446;-67
2023/01/15 12:33:52;;;;;;;21.92;3.92;;;;;;;8.86;71.03;97708.72;5044641;28;20507;-68